Time;durP1;ratioP1;P1;durP2;ratioP2;P2;SDS_P1;SDS_P2;PMS_P1;PMS_P2;Temp;Humidity;BMP_temperature;BMP_pressure;BME280_temperature;BME280_humidity;BME280_pressure;Samples;Min_cycle;Max_cycle;Signal;HPM_P1;HPM_P2
2024/01/16 00:01:06;;;;;;;10.27;4.40;;;2.80;5.10;;;;;;5093876;28;20629;-84
2024/01/16 00:03:32;;;;;;;12.97;4.57;;;2.60;5.10;;;;;;5098653;28;20199;-85
2024/01/16 00:05:58;;;;;;;11.23;4.30;;;2.70;8.10;;;;;;5100966;28;20171;-85
2024/01/16 00:08:23;;;;;;;10.00;3.77;;;2.60;7.30;;;;;;5097316;28;20176;-85
2024/01/16 00:10:50;;;;;;;11.27;5.13;;;2.60;6.90;;;;;;5095398;28;20651;-83
2024/01/16 00:13:17;;;;;;;10.07;4.67;;;2.70;3.40;;;;;;5093198;28;20250;-83
2024/01/16 00:15:43;;;;;;;10.20;4.13;;;2.60;3.20;;;;;;5093489;28;20175;-84
2024/01/16 00:18:09;;;;;;;9.30;4.47;;;2.60;3.70;;;;;;5096563;28;20195;-83
2024/01/16 00:20:35;;;;;;;9.20;4.20;;;2.60;1.00;;;;;;5102559;28;20186;-83
2024/01/16 00:23:01;;;;;;;9.17;4.87;;;2.50;1.00;;;;;;5106597;28;20201;-85
2024/01/16 00:25:26;;;;;;;10.67;4.57;;;2.30;1.40;;;;;;5102437;28;20183;-83
2024/01/16 00:27:52;;;;;;;12.20;4.27;;;2.40;5.00;;;;;;5096813;28;20277;-84
2024/01/16 00:30:18;;;;;;;9.97;4.70;;;2.20;7.50;;;;;;5093060;28;20186;-87
2024/01/16 00:32:44;;;;;;;11.33;5.20;;;2.20;10.70;;;;;;5093859;28;20211;-84
2024/01/16 00:35:10;;;;;;;10.87;5.17;;;2.20;12.80;;;;;;5094212;28;20562;-84
2024/01/16 00:37:39;;;;;;;7.93;5.00;;;2.10;12.80;;;;;;5092495;28;20232;-84
2024/01/16 00:40:08;;;;;;;10.70;4.90;;;2.20;10.50;;;;;;5093214;28;20262;-83
2024/01/16 00:42:34;;;;;;;12.57;5.50;;;2.10;10.30;;;;;;5092246;28;20214;-85
2024/01/16 00:45:00;;;;;;;15.30;6.40;;;2.20;9.90;;;;;;5092462;28;20224;-84
2024/01/16 00:47:27;;;;;;;9.87;5.47;;;2.10;9.50;;;;;;5093988;28;20236;-85
2024/01/16 00:49:52;;;;;;;11.30;5.37;;;2.10;9.20;;;;;;5093019;28;20250;-84
2024/01/16 00:52:19;;;;;;;13.93;5.73;;;2.10;9.40;;;;;;5092549;28;20599;-86
2024/01/16 00:54:45;;;;;;;9.27;4.97;;;2.10;6.40;;;;;;5093807;28;20619;-83
2024/01/16 00:57:10;;;;;;;15.40;5.23;;;2.00;5.60;;;;;;5092201;28;20189;-85
2024/01/16 00:59:37;;;;;;;13.00;5.00;;;2.10;3.30;;;;;;5092468;28;20218;-84
2024/01/16 01:02:03;;;;;;;11.73;4.63;;;2.20;1.00;;;;;;5092381;28;20212;-84
2024/01/16 01:04:29;;;;;;;9.20;4.47;;;2.10;1.00;;;;;;5092076;28;20171;-82
2024/01/16 01:06:55;;;;;;;12.90;5.30;;;2.00;1.00;;;;;;5092469;28;20176;-82
2024/01/16 01:09:21;;;;;;;12.40;5.00;;;1.90;2.60;;;;;;5092773;28;20181;-85
2024/01/16 01:11:46;;;;;;;11.17;5.00;;;1.90;3.90;;;;;;5092103;28;20183;-82
2024/01/16 01:14:12;;;;;;;9.07;5.17;;;2.10;1.00;;;;;;5092729;28;20203;-83
2024/01/16 01:16:38;;;;;;;10.30;5.40;;;2.10;1.00;;;;;;5092361;28;20221;-83
2024/01/16 01:19:03;;;;;;;11.40;5.77;;;2.20;1.00;;;;;;5092351;28;20195;-84
2024/01/16 01:21:29;;;;;;;10.73;5.87;;;2.00;1.00;;;;;;5091411;28;20203;-83
2024/01/16 01:23:55;;;;;;;16.27;5.50;;;1.80;5.70;;;;;;5092246;28;20172;-85
2024/01/16 01:26:21;;;;;;;12.57;5.87;;;1.70;6.90;;;;;;5092096;28;20174;-82
2024/01/16 01:28:46;;;;;;;10.57;6.20;;;1.80;12.20;;;;;;5092077;28;20218;-83
2024/01/16 01:31:13;;;;;;;10.13;6.00;;;1.70;10.70;;;;;;5092020;28;20266;-83
2024/01/16 01:33:39;;;;;;;12.77;6.60;;;1.80;10.10;;;;;;5091524;28;20256;-83
2024/01/16 01:36:05;;;;;;;13.00;6.23;;;1.80;5.90;;;;;;5092059;28;20178;-83
2024/01/16 01:38:31;;;;;;;10.83;5.90;;;1.70;10.70;;;;;;5091303;28;20631;-84
2024/01/16 01:40:57;;;;;;;10.67;6.30;;;1.70;7.90;;;;;;5090508;28;20264;-84
2024/01/16 01:43:26;;;;;;;12.30;6.43;;;1.60;8.80;;;;;;5091783;28;20251;-83
2024/01/16 01:46:16;;;;;;;12.27;6.37;;;1.60;9.20;;;;;;5090790;28;20181;-84
2024/01/16 01:48:42;;;;;;;9.80;5.60;;;1.60;9.50;;;;;;5091790;28;20174;-84
2024/01/16 01:51:13;;;;;;;9.43;5.63;;;1.70;11.60;;;;;;5092192;28;20239;-83
2024/01/16 01:53:41;;;;;;;12.00;5.90;;;1.80;11.70;;;;;;5091903;28;20658;-83
2024/01/16 01:56:14;;;;;;;13.40;5.77;;;1.80;4.10;;;;;;5090936;28;20190;-83
2024/01/16 01:58:42;;;;;;;10.33;5.73;;;1.70;4.00;;;;;;5091438;28;20175;-83
2024/01/16 02:01:09;;;;;;;11.53;5.43;;;1.70;6.10;;;;;;5091960;28;20584;-83
2024/01/16 02:03:56;;;;;;;12.93;5.73;;;1.50;6.70;;;;;;5091568;28;20167;-83
2024/01/16 02:06:22;;;;;;;9.97;5.17;;;1.50;10.40;;;;;;5094060;28;20171;-84
2024/01/16 02:08:48;;;;;;;11.73;5.30;;;1.70;6.90;;;;;;5103520;28;20231;-84
2024/01/16 02:11:13;;;;;;;8.80;5.40;;;1.60;7.30;;;;;;5098223;28;20752;-84
2024/01/16 02:13:39;;;;;;;9.50;5.57;;;1.60;9.50;;;;;;5091806;28;20175;-82
2024/01/16 02:16:05;;;;;;;12.87;5.70;;;1.50;10.10;;;;;;5093014;28;20558;-83
2024/01/16 02:18:31;;;;;;;10.53;5.80;;;1.50;11.80;;;;;;5095659;28;20539;-83
2024/01/16 02:21:02;;;;;;;11.17;5.37;;;1.40;14.40;;;;;;5095495;28;20202;-83
2024/01/16 02:23:28;;;;;;;11.70;6.10;;;1.40;15.20;;;;;;5095499;28;20183;-84
2024/01/16 02:25:54;;;;;;;12.33;5.10;;;1.30;15.90;;;;;;5095292;28;20206;-84
2024/01/16 02:28:20;;;;;;;11.00;5.07;;;1.50;16.10;;;;;;5095562;28;20254;-83
2024/01/16 02:30:46;;;;;;;8.60;4.80;;;1.30;15.80;;;;;;5095124;28;20723;-83
2024/01/16 02:33:12;;;;;;;13.43;5.80;;;1.40;17.50;;;;;;5096395;28;20213;-83
2024/01/16 02:35:37;;;;;;;14.07;5.60;;;1.30;18.30;;;;;;5094512;28;20178;-84
2024/01/16 02:38:04;;;;;;;9.27;5.20;;;1.30;19.20;;;;;;5095599;28;20179;-84
2024/01/16 02:40:30;;;;;;;12.90;6.07;;;1.20;17.10;;;;;;5095064;28;20186;-84
2024/01/16 02:42:55;;;;;;;10.47;5.63;;;1.30;17.90;;;;;;5093599;28;20212;-82
2024/01/16 02:45:21;;;;;;;13.70;4.87;;;1.30;15.70;;;;;;5095597;28;20217;-83
2024/01/16 02:47:47;;;;;;;10.17;5.40;;;1.20;18.50;;;;;;5095562;28;20573;-82
2024/01/16 02:50:13;;;;;;;10.60;5.90;;;1.10;15.50;;;;;;5095374;28;20179;-83
2024/01/16 02:52:39;;;;;;;10.53;5.30;;;1.00;19.00;;;;;;5094518;28;20170;-83
2024/01/16 02:55:05;;;;;;;10.03;6.17;;;1.10;22.50;;;;;;5094857;28;20176;-82
2024/01/16 02:57:31;;;;;;;10.13;5.53;;;1.10;21.50;;;;;;5093754;28;20198;-82
2024/01/16 02:59:56;;;;;;;9.87;5.27;;;1.20;22.20;;;;;;5094858;28;20579;-84
2024/01/16 03:02:23;;;;;;;10.00;5.67;;;1.20;19.50;;;;;;5095855;28;20195;-84
2024/01/16 03:04:49;;;;;;;11.90;5.60;;;1.20;18.60;;;;;;5094937;28;20532;-82
2024/01/16 03:07:15;;;;;;;8.83;5.20;;;1.20;18.40;;;;;;5094597;28;20172;-84
2024/01/16 03:09:41;;;;;;;13.53;5.20;;;1.20;19.50;;;;;;5094030;28;20180;-82
2024/01/16 03:12:07;;;;;;;13.27;5.57;;;1.20;17.70;;;;;;5095120;28;20211;-83
2024/01/16 03:14:34;;;;;;;12.13;5.63;;;1.10;16.30;;;;;;5094514;28;20175;-83
2024/01/16 03:17:03;;;;;;;10.33;5.90;;;1.10;18.80;;;;;;5093019;28;20283;-83
2024/01/16 03:19:29;;;;;;;8.73;5.13;;;1.20;19.30;;;;;;5094640;28;20172;-83
2024/01/16 03:21:54;;;;;;;9.73;5.10;;;1.10;16.00;;;;;;5093312;28;20308;-82
2024/01/16 03:24:20;;;;;;;9.40;5.97;;;1.10;16.30;;;;;;5094113;28;20163;-83
2024/01/16 03:26:46;;;;;;;10.60;5.67;;;1.20;16.10;;;;;;5092593;28;20175;-84
2024/01/16 03:29:11;;;;;;;9.63;5.07;;;1.20;13.50;;;;;;5093790;28;20263;-84
2024/01/16 03:31:37;;;;;;;12.10;5.90;;;1.20;11.60;;;;;;5094035;28;20187;-84
2024/01/16 03:34:03;;;;;;;9.70;4.93;;;1.20;8.40;;;;;;5094084;28;20182;-85
2024/01/16 03:36:28;;;;;;;10.87;5.27;;;1.60;8.00;;;;;;5093821;28;20180;-82
2024/01/16 03:38:54;;;;;;;11.07;4.90;;;1.40;1.80;;;;;;5094275;28;20202;-83
2024/01/16 03:41:20;;;;;;;10.73;6.07;;;1.20;3.00;;;;;;5093889;28;20203;-83
2024/01/16 03:43:45;;;;;;;13.90;6.43;;;1.20;5.80;;;;;;5093898;28;20179;-83
2024/01/16 03:46:11;;;;;;;11.43;5.00;;;1.20;5.10;;;;;;5093107;28;20167;-82
2024/01/16 03:48:37;;;;;;;9.57;4.77;;;1.30;9.30;;;;;;5096764;28;20182;-84
2024/01/16 03:51:03;;;;;;;9.93;5.07;;;1.20;5.30;;;;;;5081645;28;20172;-82
2024/01/16 03:53:28;;;;;;;8.37;5.30;;;1.20;9.30;;;;;;5102524;28;20167;-84
2024/01/16 03:55:54;;;;;;;9.67;4.73;;;1.30;8.80;;;;;;5096385;28;20631;-83
2024/01/16 03:58:20;;;;;;;12.20;5.10;;;1.20;6.80;;;;;;5093645;28;20179;-83
2024/01/16 04:00:46;;;;;;;9.80;4.40;;;1.30;7.50;;;;;;5093691;28;20262;-82
2024/01/16 04:03:13;;;;;;;11.27;5.13;;;1.20;5.80;;;;;;5095226;28;20182;-82
2024/01/16 04:05:38;;;;;;;12.80;5.67;;;1.20;6.40;;;;;;5092576;28;20172;-84
2024/01/16 04:08:04;;;;;;;12.23;5.60;;;1.00;8.30;;;;;;5093306;28;20546;-84
2024/01/16 04:10:31;;;;;;;11.73;5.07;;;1.10;10.80;;;;;;5092427;28;20191;-85
2024/01/16 04:13:00;;;;;;;11.00;4.70;;;1.30;9.10;;;;;;5093791;28;20182;-84
2024/01/16 04:15:26;;;;;;;10.67;5.63;;;1.00;8.60;;;;;;5093152;28;20175;-83
2024/01/16 04:17:52;;;;;;;11.33;5.60;;;0.90;11.80;;;;;;5092896;28;20199;-82
2024/01/16 04:20:18;;;;;;;8.90;4.90;;;1.00;15.30;;;;;;5092939;28;20273;-83
2024/01/16 04:22:45;;;;;;;12.43;5.13;;;1.00;12.70;;;;;;5093329;28;20223;-82
2024/01/16 04:25:11;;;;;;;10.77;6.07;;;1.10;11.00;;;;;;5093057;28;20620;-82
2024/01/16 04:27:36;;;;;;;13.20;5.77;;;1.10;12.40;;;;;;5093533;28;20227;-82
2024/01/16 04:30:02;;;;;;;11.87;6.00;;;0.80;12.40;;;;;;5092591;28;20635;-84
2024/01/16 04:32:28;;;;;;;12.13;5.77;;;0.90;14.50;;;;;;5093363;28;20224;-83
2024/01/16 04:34:54;;;;;;;13.43;5.80;;;0.90;13.00;;;;;;5092233;28;20229;-84
2024/01/16 04:37:19;;;;;;;10.97;5.53;;;0.90;12.40;;;;;;5092931;28;20258;-84
2024/01/16 04:39:45;;;;;;;9.67;5.63;;;0.90;12.90;;;;;;5092374;28;20214;-84
2024/01/16 04:42:11;;;;;;;11.13;5.77;;;1.00;10.30;;;;;;5093036;28;20750;-84
2024/01/16 04:44:37;;;;;;;11.13;5.53;;;1.00;7.80;;;;;;5092275;28;20203;-84
2024/01/16 04:47:03;;;;;;;11.27;5.80;;;1.00;6.30;;;;;;5093029;28;20578;-83
2024/01/16 04:49:28;;;;;;;15.57;6.47;;;1.00;4.90;;;;;;5092785;28;20175;-83
2024/01/16 04:51:54;;;;;;;11.83;6.90;;;1.10;6.90;;;;;;5091766;28;20195;-84
2024/01/16 04:54:19;;;;;;;10.30;5.97;;;1.10;5.10;;;;;;5091925;28;20175;-83
2024/01/16 04:56:45;;;;;;;9.47;5.57;;;1.20;1.40;;;;;;5091767;28;20192;-84
2024/01/16 04:59:11;;;;;;;12.57;6.80;;;1.20;1.00;;;;;;5091805;28;20171;-82
2024/01/16 05:01:37;;;;;;;11.67;5.63;;;1.10;1.00;;;;;;5092659;28;20207;-83
2024/01/16 05:04:03;;;;;;;8.80;5.47;;;1.10;1.00;;;;;;5091510;28;20258;-83
2024/01/16 05:06:29;;;;;;;11.37;6.10;;;1.10;1.00;;;;;;5092394;28;20171;-84
2024/01/16 05:08:55;;;;;;;8.73;5.27;;;1.00;1.00;;;;;;5092821;28;20632;-83
2024/01/16 05:11:21;;;;;;;9.20;5.53;;;0.90;1.00;;;;;;5093211;28;20277;-84
2024/01/16 05:13:46;;;;;;;10.03;5.23;;;0.80;2.70;;;;;;5092840;28;20619;-84
2024/01/16 05:16:13;;;;;;;10.40;5.90;;;1.00;4.00;;;;;;5092153;28;20183;-82
2024/01/16 05:18:42;;;;;;;11.03;5.10;;;0.90;4.40;;;;;;5091884;28;20710;-84
2024/01/16 05:21:08;;;;;;;9.97;5.47;;;1.10;4.10;;;;;;5090425;28;20199;-85
2024/01/16 05:23:34;;;;;;;8.93;4.53;;;1.20;1.00;;;;;;5092462;28;20176;-84
2024/01/16 05:25:59;;;;;;;13.37;5.63;;;1.10;1.00;;;;;;5092682;28;20258;-84
2024/01/16 05:28:25;;;;;;;9.40;5.57;;;1.20;1.00;;;;;;5091820;28;20521;-85
2024/01/16 05:30:51;;;;;;;13.37;6.00;;;1.30;1.00;;;;;;5104300;28;20221;-84
2024/01/16 05:33:16;;;;;;;10.17;5.17;;;1.10;1.00;;;;;;5104711;28;20203;-83
2024/01/16 05:35:42;;;;;;;13.30;6.20;;;0.90;1.00;;;;;;5091908;28;20280;-83
2024/01/16 05:38:08;;;;;;;9.47;4.80;;;0.80;1.00;;;;;;5092300;28;20175;-83
2024/01/16 05:40:33;;;;;;;10.60;5.10;;;0.80;1.00;;;;;;5092140;28;20194;-84
2024/01/16 05:42:59;;;;;;;9.20;5.53;;;0.90;1.00;;;;;;5091287;28;20749;-82
2024/01/16 05:45:25;;;;;;;10.87;5.13;;;0.90;1.00;;;;;;5091950;28;20634;-84
2024/01/16 05:47:50;;;;;;;14.00;6.10;;;0.70;1.00;;;;;;5091651;28;20179;-84
2024/01/16 05:50:19;;;;;;;13.63;6.50;;;0.60;1.00;;;;;;5091066;28;20175;-84
2024/01/16 05:52:44;;;;;;;11.03;5.57;;;0.50;2.40;;;;;;5091875;28;20263;-83
2024/01/16 05:55:10;;;;;;;12.47;6.23;;;0.70;4.50;;;;;;5091678;28;20271;-82
2024/01/16 05:57:37;;;;;;;12.03;6.00;;;0.80;1.00;;;;;;5092816;28;20183;-84
2024/01/16 06:00:05;;;;;;;9.50;5.63;;;0.70;1.00;;;;;;5091475;28;20171;-84
2024/01/16 06:02:31;;;;;;;11.23;6.20;;;0.50;1.00;;;;;;5091890;28;20232;-82
2024/01/16 06:04:56;;;;;;;10.73;5.67;;;0.40;3.60;;;;;;5091051;28;20217;-85
2024/01/16 06:07:22;;;;;;;11.77;5.93;;;0.40;4.70;;;;;;5090621;28;20198;-84
2024/01/16 06:09:47;;;;;;;13.30;5.87;;;0.30;9.00;;;;;;5091451;28;20195;-84
2024/01/16 06:12:13;;;;;;;11.47;6.30;;;0.40;10.10;;;;;;5090682;28;20175;-84
2024/01/16 06:14:39;;;;;;;12.20;6.10;;;0.60;8.50;;;;;;5091615;28;20168;-83
2024/01/16 06:17:08;;;;;;;12.97;5.73;;;0.60;4.30;;;;;;5091449;28;20206;-83
2024/01/16 06:19:33;;;;;;;10.43;5.87;;;0.50;6.00;;;;;;5091472;28;20634;-84
2024/01/16 06:21:59;;;;;;;16.53;6.63;;;0.60;3.80;;;;;;5091413;28;20211;-83
2024/01/16 06:24:25;;;;;;;9.40;5.80;;;0.50;1.10;;;;;;5072645;28;20179;-85
2024/01/16 06:26:51;;;;;;;8.73;5.73;;;0.40;4.50;;;;;;5090992;28;20487;-83
2024/01/16 06:29:17;;;;;;;11.20;5.60;;;0.40;6.40;;;;;;5090918;28;20176;-83
2024/01/16 06:31:43;;;;;;;10.57;5.43;;;0.30;8.10;;;;;;5090717;28;20168;-85
2024/01/16 06:34:08;;;;;;;10.97;5.67;;;0.30;12.40;;;;;;5090518;28;20182;-84
2024/01/16 06:36:34;;;;;;;10.93;6.03;;;0.30;11.80;;;;;;5092559;28;20259;-83
2024/01/16 06:39:00;;;;;;;10.73;6.03;;;0.30;11.10;;;;;;5087677;28;20628;-82
2024/01/16 06:41:25;;;;;;;9.13;6.03;;;0.30;13.30;;;;;;5088421;28;20263;-86
2024/01/16 06:43:51;;;;;;;11.70;6.13;;;0.40;13.50;;;;;;5094012;28;20179;-85
2024/01/16 06:46:17;;;;;;;14.83;6.33;;;0.50;14.10;;;;;;5104173;28;20159;-84
2024/01/16 06:48:42;;;;;;;11.23;5.77;;;0.50;7.60;;;;;;5091337;28;20232;-82
2024/01/16 06:51:10;;;;;;;12.97;6.10;;;0.40;6.70;;;;;;5090898;28;20179;-84
2024/01/16 06:53:36;;;;;;;13.40;6.77;;;0.40;8.20;;;;;;5089465;28;20658;-82
2024/01/16 06:56:03;;;;;;;13.70;6.33;;;0.50;10.40;;;;;;5089841;28;20174;-83
2024/01/16 06:58:28;;;;;;;12.03;5.73;;;0.60;8.90;;;;;;5090576;28;20179;-85
2024/01/16 07:00:55;;;;;;;13.93;5.53;;;0.50;1.00;;;;;;5090765;28;20233;-84
2024/01/16 07:03:20;;;;;;;14.53;5.93;;;0.40;4.00;;;;;;5094120;28;20183;-83
2024/01/16 07:05:46;;;;;;;11.13;6.07;;;0.40;6.50;;;;;;5094260;28;20179;-83
2024/01/16 07:08:12;;;;;;;11.67;6.37;;;0.40;5.70;;;;;;5095241;28;20593;-85
2024/01/16 07:10:37;;;;;;;10.50;5.73;;;0.30;8.10;;;;;;5101954;28;20176;-83
2024/01/16 07:13:05;;;;;;;12.77;5.20;;;0.20;11.40;;;;;;5101235;28;20180;-84
2024/01/16 07:15:31;;;;;;;15.20;5.47;;;0.20;12.30;;;;;;5092993;28;20182;-82
2024/01/16 07:17:58;;;;;;;13.97;6.97;;;0.20;14.70;;;;;;5080285;28;20199;-83
2024/01/16 07:20:23;;;;;;;14.13;5.73;;;0.30;16.50;;;;;;5087981;28;20183;-83
2024/01/16 07:22:49;;;;;;;16.67;6.07;;;0.40;15.30;;;;;;5092759;28;20252;-82
2024/01/16 07:25:15;;;;;;;11.33;5.23;;;0.40;13.60;;;;;;5093462;28;20534;-80
2024/01/16 07:27:42;;;;;;;12.47;6.23;;;0.50;10.90;;;;;;5094475;28;20182;-83
2024/01/16 07:30:08;;;;;;;12.70;6.37;;;0.50;9.20;;;;;;5094745;28;20180;-81
2024/01/16 07:32:34;;;;;;;13.47;5.80;;;0.40;9.10;;;;;;5097397;28;20824;-84
2024/01/16 07:35:00;;;;;;;14.03;6.13;;;0.40;10.90;;;;;;5094192;28;20183;-82
2024/01/16 07:37:25;;;;;;;11.93;5.53;;;0.40;13.20;;;;;;5093686;28;20616;-83
2024/01/16 07:39:51;;;;;;;11.70;6.47;;;0.40;8.40;;;;;;5091792;28;20180;-83
2024/01/16 07:42:16;;;;;;;14.53;5.73;;;0.50;9.20;;;;;;5090499;28;20305;-82
2024/01/16 07:44:42;;;;;;;14.67;5.87;;;0.50;8.40;;;;;;5089778;28;20689;-82
2024/01/16 07:47:08;;;;;;;14.17;5.87;;;0.40;6.00;;;;;;5090083;28;20284;-82
2024/01/16 07:49:34;;;;;;;11.83;6.17;;;0.40;8.80;;;;;;5089503;28;20554;-82
2024/01/16 07:52:00;;;;;;;12.03;6.23;;;0.70;10.50;;;;;;5090030;28;20597;-82
2024/01/16 07:54:26;;;;;;;13.97;5.93;;;0.60;6.90;;;;;;5089743;28;20263;-80
2024/01/16 07:56:51;;;;;;;10.50;4.93;;;0.50;3.70;;;;;;5090231;28;20191;-80
2024/01/16 07:59:17;;;;;;;12.77;5.70;;;0.50;1.50;;;;;;5088974;28;20198;-83
2024/01/16 08:01:43;;;;;;;13.10;6.03;;;0.50;2.40;;;;;;5090122;28;20245;-82
2024/01/16 08:04:09;;;;;;;15.57;6.10;;;0.40;5.20;;;;;;5089967;28;20623;-82
2024/01/16 08:06:35;;;;;;;14.27;5.83;;;0.40;3.00;;;;;;5089241;28;20604;-82
2024/01/16 08:09:00;;;;;;;10.13;5.43;;;0.50;2.20;;;;;;5089789;28;20233;-82
2024/01/16 08:11:26;;;;;;;12.50;5.57;;;0.40;2.00;;;;;;5089086;28;20263;-81
2024/01/16 08:13:52;;;;;;;11.60;6.00;;;0.50;3.40;;;;;;5091090;28;20186;-81
2024/01/16 08:16:17;;;;;;;10.37;6.00;;;0.60;4.20;;;;;;5095734;28;20625;-82
2024/01/16 08:18:43;;;;;;;13.30;6.20;;;0.50;1.20;;;;;;5093117;28;20863;-81
2024/01/16 08:21:09;;;;;;;12.53;6.03;;;0.70;1.00;;;;;;5092575;28;20263;-85
2024/01/16 08:23:34;;;;;;;12.07;5.13;;;0.80;1.00;;;;;;5094237;28;20172;-82
2024/01/16 08:26:00;;;;;;;12.90;5.90;;;0.90;1.00;;;;;;5092813;28;20262;-81
2024/01/16 08:28:26;;;;;;;9.63;4.97;;;0.70;1.00;;;;;;5092302;28;20199;-82
2024/01/16 08:30:52;;;;;;;11.60;6.43;;;0.80;1.00;;;;;;5091234;28;20704;-82
2024/01/16 08:33:17;;;;;;;8.53;5.47;;;0.80;1.00;;;;;;5093093;28;20270;-81
2024/01/16 08:35:44;;;;;;;10.87;4.97;;;0.80;1.00;;;;;;5092710;28;20617;-81
2024/01/16 08:38:09;;;;;;;9.20;5.17;;;0.80;1.00;;;;;;5092514;28;20184;-82
2024/01/16 08:40:35;;;;;;;12.43;5.97;;;0.80;1.00;;;;;;5092216;28;20188;-81
2024/01/16 08:43:01;;;;;;;8.70;5.73;;;0.80;1.00;;;;;;5092161;28;20211;-83
2024/01/16 08:45:27;;;;;;;15.97;6.17;;;0.80;1.00;;;;;;5093641;28;20659;-81
2024/01/16 08:47:52;;;;;;;10.57;5.60;;;0.90;1.00;;;;;;5094844;28;20191;-82
2024/01/16 08:50:18;;;;;;;10.10;5.57;;;0.80;1.00;;;;;;5092518;28;20547;-83
2024/01/16 08:52:44;;;;;;;12.50;5.83;;;0.80;1.00;;;;;;5097514;28;20247;-82
2024/01/16 08:55:10;;;;;;;14.30;5.37;;;0.70;1.00;;;;;;5110073;28;20179;-81
2024/01/16 08:57:37;;;;;;;11.23;5.27;;;0.70;1.00;;;;;;5098161;28;20547;-82
2024/01/16 09:00:06;;;;;;;12.70;4.60;;;0.80;1.00;;;;;;5092165;28;20171;-82
2024/01/16 09:02:32;;;;;;;11.73;5.20;;;0.90;1.00;;;;;;5091946;28;20214;-82
2024/01/16 09:04:58;;;;;;;10.83;4.77;;;1.00;1.00;;;;;;5091810;28;20163;-83
2024/01/16 09:07:27;;;;;;;12.57;6.10;;;0.90;1.00;;;;;;5091956;28;20639;-84
2024/01/16 09:09:53;;;;;;;11.83;5.03;;;0.90;1.00;;;;;;5091452;28;20164;-82
2024/01/16 09:12:19;;;;;;;9.80;5.00;;;1.00;1.00;;;;;;5091750;28;20657;-83
2024/01/16 09:14:45;;;;;;;8.93;4.70;;;1.00;1.00;;;;;;5091857;28;20167;-83
2024/01/16 09:17:11;;;;;;;10.00;4.70;;;1.00;1.00;;;;;;5092819;28;20700;-82
2024/01/16 09:19:36;;;;;;;8.73;5.33;;;1.10;1.00;;;;;;5091926;28;20299;-83
2024/01/16 09:22:03;;;;;;;11.33;4.80;;;1.10;1.00;;;;;;5091805;28;20215;-81
2024/01/16 09:24:29;;;;;;;9.83;4.40;;;1.10;1.00;;;;;;5091223;28;20199;-82
2024/01/16 09:26:55;;;;;;;7.33;4.10;;;1.10;1.00;;;;;;5091597;28;20276;-82
2024/01/16 09:29:22;;;;;;;13.43;4.57;;;1.00;1.00;;;;;;5091631;28;20536;-81
2024/01/16 09:31:48;;;;;;;7.27;4.53;;;1.00;1.00;;;;;;5091298;28;20183;-82
2024/01/16 09:34:14;;;;;;;12.20;5.13;;;1.20;1.00;;;;;;5091316;28;20174;-83
2024/01/16 09:36:40;;;;;;;10.23;4.90;;;1.30;1.00;;;;;;5091349;28;20194;-82
2024/01/16 09:39:13;;;;;;;13.93;4.97;;;1.20;1.00;;;;;;5090998;28;20181;-82
2024/01/16 09:41:41;;;;;;;9.60;4.60;;;1.20;1.00;;;;;;5091224;28;20195;-82
2024/01/16 09:44:07;;;;;;;11.03;5.83;;;1.40;1.00;;;;;;5091482;28;20224;-82
2024/01/16 09:46:34;;;;;;;7.43;5.20;;;1.40;1.00;;;;;;5093007;28;20174;-82
2024/01/16 09:49:02;;;;;;;13.63;4.73;;;1.20;1.00;;;;;;5092637;28;20214;-82
2024/01/16 09:51:28;;;;;;;8.37;4.80;;;1.10;1.00;;;;;;5091577;28;20171;-82
2024/01/16 09:53:54;;;;;;;10.43;5.00;;;1.10;1.00;;;;;;5091166;28;20183;-82
2024/01/16 09:56:24;;;;;;;9.80;4.60;;;1.20;1.00;;;;;;5091728;28;20183;-82
2024/01/16 09:58:56;;;;;;;6.97;4.47;;;1.50;1.00;;;;;;5091269;28;20172;-81
2024/01/16 10:01:26;;;;;;;9.60;4.83;;;1.50;1.00;;;;;;5092503;28;20187;-83
2024/01/16 10:03:52;;;;;;;9.50;4.23;;;1.50;1.00;;;;;;5091140;28;20655;-82
2024/01/16 10:06:20;;;;;;;10.57;5.10;;;1.80;1.00;;;;;;5091378;28;20263;-84
2024/01/16 10:08:46;;;;;;;9.90;4.80;;;2.00;1.00;;;;;;5090853;28;20228;-82
2024/01/16 10:11:12;;;;;;;9.33;4.97;;;2.00;1.00;;;;;;5091119;28;20168;-82
2024/01/16 10:13:38;;;;;;;10.20;4.63;;;2.10;1.00;;;;;;5092456;28;20305;-81
2024/01/16 10:16:04;;;;;;;10.43;5.03;;;2.10;1.00;;;;;;5091161;28;20534;-83
2024/01/16 10:18:30;;;;;;;11.80;5.17;;;2.10;1.00;;;;;;5090844;28;20190;-82
2024/01/16 10:20:56;;;;;;;10.27;4.70;;;2.10;1.00;;;;;;5090697;28;20167;-83
2024/01/16 10:23:36;;;;;;;26.23;4.57;;;2.00;1.00;;;;;;5090784;28;20550;-82
2024/01/16 10:26:13;;;;;;;8.03;4.70;;;2.10;1.00;;;;;;5092205;28;20212;-83
2024/01/16 10:28:40;;;;;;;8.47;4.20;;;2.10;1.00;;;;;;5091008;28;20503;-81
2024/01/16 10:31:11;;;;;;;10.13;4.50;;;2.10;1.00;;;;;;5093043;28;20245;-81
2024/01/16 10:33:40;;;;;;;8.23;4.60;;;2.50;1.00;;;;;;5097633;28;20201;-82
2024/01/16 10:36:16;;;;;;;12.97;4.47;;;2.40;1.00;;;;;;5097968;28;20209;-82
2024/01/16 10:38:43;;;;;;;8.50;4.63;;;2.70;1.00;;;;;;5094222;28;20319;-82
2024/01/16 10:41:24;;;;;;;6.90;4.37;;;2.50;1.00;;;;;;5096195;28;20184;-83
2024/01/16 10:44:04;;;;;;;8.50;4.57;;;2.40;1.00;;;;;;5097902;28;20194;-83
2024/01/16 10:46:29;;;;;;;5.97;3.90;;;2.50;1.00;;;;;;5096342;28;20163;-82
2024/01/16 10:49:00;;;;;;;11.50;4.93;;;2.60;1.00;;;;;;5094974;28;20174;-82
2024/01/16 10:51:28;;;;;;;12.13;4.57;;;2.60;1.00;;;;;;5094728;28;20175;-82
2024/01/16 10:54:03;;;;;;;8.20;3.97;;;2.70;1.00;;;;;;5095065;28;20168;-82
2024/01/16 10:56:29;;;;;;;8.00;4.23;;;2.60;1.00;;;;;;5094936;28;20186;-83
2024/01/16 10:59:14;;;;;;;8.47;3.87;;;2.50;1.00;;;;;;5096818;28;20168;-81
2024/01/16 11:01:43;;;;;;;9.90;4.50;;;2.40;1.00;;;;;;5097135;28;20203;-83
2024/01/16 11:04:09;;;;;;;8.20;3.97;;;2.40;1.00;;;;;;5098537;28;20620;-82
2024/01/16 11:06:36;;;;;;;9.60;4.03;;;2.70;1.00;;;;;;5094881;28;20203;-82
2024/01/16 11:09:02;;;;;;;9.73;3.80;;;2.70;1.00;;;;;;5093722;28;20225;-82
2024/01/16 11:11:29;;;;;;;12.50;4.37;;;2.80;1.00;;;;;;5093815;28;20207;-83
2024/01/16 11:13:57;;;;;;;7.73;4.27;;;3.00;1.00;;;;;;5094064;28;20175;-82
2024/01/16 11:16:23;;;;;;;10.40;5.23;;;3.00;1.00;;;;;;5094161;28;20180;-82
2024/01/16 11:18:49;;;;;;;6.47;4.20;;;3.10;1.00;;;;;;5093952;28;20199;-82
2024/01/16 11:21:16;;;;;;;10.77;4.13;;;3.20;1.00;;;;;;5093897;28;20267;-85
2024/01/16 11:23:43;;;;;;;10.67;4.47;;;3.10;1.00;;;;;;5094436;28;20207;-83
2024/01/16 11:26:27;;;;;;;12.07;4.13;;;3.20;1.00;;;;;;5093938;28;20172;-82
2024/01/16 11:28:56;;;;;;;10.00;3.93;;;3.40;1.00;;;;;;5088347;28;20184;-81
2024/01/16 11:31:35;;;;;;;10.87;4.43;;;3.40;1.00;;;;;;5082389;28;20180;-82
2024/01/16 11:34:02;;;;;;;10.67;4.53;;;3.50;1.00;;;;;;5073834;28;20214;-83
2024/01/16 11:36:54;;;;;;;9.53;4.70;;;3.50;1.00;;;;;;5072706;28;20172;-82
2024/01/16 11:39:27;;;;;;;8.23;4.77;;;3.40;1.00;;;;;;5074450;28;20180;-81
2024/01/16 11:41:54;;;;;;;10.17;4.20;;;3.60;1.00;;;;;;5073160;28;20622;-83
2024/01/16 11:44:39;;;;;;;8.57;4.17;;;3.60;1.00;;;;;;5073364;28;20248;-83
2024/01/16 11:47:06;;;;;;;6.73;4.10;;;3.50;1.00;;;;;;5073428;28;20190;-82
2024/01/16 11:49:32;;;;;;;7.23;4.47;;;3.50;1.00;;;;;;5072581;28;20271;-82
2024/01/16 11:51:58;;;;;;;6.83;3.20;;;3.80;1.00;;;;;;5073319;28;20279;-82
2024/01/16 11:54:24;;;;;;;6.03;3.17;;;3.70;1.00;;;;;;5072906;28;20186;-82
2024/01/16 11:57:11;;;;;;;5.93;3.50;;;3.90;1.00;;;;;;5072719;28;20192;-85
2024/01/16 11:59:58;;;;;;;7.63;4.40;;;3.80;1.00;;;;;;5073048;28;20193;-84
2024/01/16 12:02:55;;;;;;;10.23;4.27;;;4.00;1.00;;;;;;5072611;28;20262;-84
2024/01/16 12:05:21;;;;;;;6.90;4.10;;;3.80;1.00;;;;;;5056977;28;20200;-83
2024/01/16 12:07:52;;;;;;;7.07;3.57;;;3.80;1.00;;;;;;5073926;28;20172;-84
2024/01/16 12:10:20;;;;;;;6.77;3.93;;;3.60;1.00;;;;;;5082814;28;20180;-81
2024/01/16 12:12:47;;;;;;;9.73;4.50;;;3.80;1.00;;;;;;5080825;28;20203;-82
2024/01/16 12:15:16;;;;;;;8.43;4.23;;;3.90;1.00;;;;;;5072262;28;20182;-82
2024/01/16 12:18:03;;;;;;;9.60;4.47;;;4.00;1.00;;;;;;5072220;28;20286;-83
2024/01/16 12:20:33;;;;;;;7.90;3.87;;;4.10;1.00;;;;;;5072269;28;20179;-83
2024/01/16 12:23:03;;;;;;;8.50;3.63;;;4.10;1.00;;;;;;5073902;28;20336;-85
2024/01/16 12:25:31;;;;;;;7.53;3.53;;;4.00;1.00;;;;;;5072550;28;20176;-82
2024/01/16 12:27:59;;;;;;;8.73;4.23;;;4.00;1.00;;;;;;5072389;28;20612;-83
2024/01/16 12:30:30;;;;;;;8.67;4.83;;;4.00;1.00;;;;;;5073258;28;20293;-83
2024/01/16 12:33:11;;;;;;;9.20;4.13;;;4.00;1.00;;;;;;5072211;28;20222;-83
2024/01/16 12:35:37;;;;;;;8.00;3.83;;;4.20;1.00;;;;;;5074250;28;20175;-84
2024/01/16 12:38:05;;;;;;;7.80;3.57;;;4.20;1.00;;;;;;5072385;28;20183;-83
2024/01/16 12:40:32;;;;;;;6.20;3.60;;;4.10;1.00;;;;;;5072376;28;20218;-83
2024/01/16 12:42:58;;;;;;;7.17;3.10;;;4.20;1.00;;;;;;5072963;28;20215;-83
2024/01/16 12:45:24;;;;;;;9.27;3.10;;;3.90;1.00;;;;;;5074081;28;20172;-82
2024/01/16 12:47:53;;;;;;;5.40;3.70;;;3.80;1.00;;;;;;5073711;28;20199;-83
2024/01/16 12:50:21;;;;;;;8.03;4.13;;;3.60;1.00;;;;;;5071985;28;20253;-83
2024/01/16 12:52:46;;;;;;;10.03;4.40;;;3.70;1.00;;;;;;5072771;28;20164;-84
2024/01/16 12:55:13;;;;;;;11.43;3.83;;;3.70;1.00;;;;;;5071938;28;20172;-83
2024/01/16 12:57:39;;;;;;;7.93;3.50;;;3.80;1.00;;;;;;5073144;28;20234;-82